O'Brien, Oregon
Current Conditions -  °F | °C
As of 3:56 AM on Friday 28 Nov 2014 (Local Time) from KBOK Reporting Station
Light Rain Light Rain  
Wind Chill: 57°   Ceiling: Unl
Heat Index: 57°   Visibility: 7mi
Dew Point: 51°   Wind: 10mph
Humidity: 80%   Direction: 160°SSE
Pressure: 29.86"   Gusts: NA
Location:  42.07°N, 123.71°W
Report Text: KBOK 281156Z AUTO 16009KT 7SM -RA FEW033 SCT046 14/11 A2986 RMK AO2 56021 60000 70002 T01380105 10144 20138 RAB00 P0000 SLP112
Loading
Personal Weather Stations






























Interactive Weather Map New forecast layout! Learn more

10-Day Weather Forecast

Advertisements
Track Severe Weather on mobile